Blue Oak Ranch Reserve, California Weather observations

Data are for 10 minute period ending at time listed.
 Day   Time   Solar   Ave.   Ave.  Ave.  Vector  Max.   Baro.   Total    
  of    of     Rad.   Air    Rel.  Wind   Wind   Wind  Press.  Precip.   
Year   Day            Temp.  Hum.  Speed  Dir.   Gust                    
2026   (PST)  Kw/m2    F      %     mph   deg.    mph    mb.     in.     
-------------------------------------------------------------------------
 126    0:00   0.00   46.4    93    0.5   302     2.3   952.1    0.00 
 126    0:10   0.00   45.7    93    0.4     6     1.4   952.1    0.00 
 126    0:20   0.00   45.2    93    1.0    38     2.0   952.1    0.00 
 126    0:30   0.00   44.7    93    0.5    72     2.0   952.2    0.00 
 126    0:40   0.00   44.7    94    0.8   307     2.0   952.1    0.00 
 126    0:50   0.00   44.4    94    0.3   304     1.2   952.0    0.00 
 126    1:00   0.00   44.3    94    0.3   302     1.2   952.0    0.00 
 126    1:10   0.00   43.6    94    2.5   271     3.3   952.0    0.00 
 126    1:20   0.00   43.6    94    2.1   286     2.8   952.0    0.00 
 126    1:30   0.00   43.5    94    1.4    59     2.6   951.9    0.00 
 126    1:40   0.00   43.5    95    1.5   280     3.1   951.9    0.00 
 126    1:50   0.00   44.2    95    1.3    36     3.0   952.0    0.00 
 126    2:00   0.00   44.7    95    1.2    68     3.1   952.0    0.00 
 126    2:10   0.00   45.3    95    0.6    34     1.5   952.0    0.00 
 126    2:20   0.00   45.7    95    0.0    67     0.6   952.0    0.00 
 126    2:30   0.00   45.8    95    0.0    34     1.0   952.1    0.00 
 126    2:40   0.00   46.2    95    1.0    69     2.0   952.1    0.00 
 126    2:50   0.00   46.5    95    1.2    62     2.4   952.2    0.00 
 126    3:00   0.00   46.9    95    0.9    76     1.9   952.2    0.00 
 126    3:10   0.00   47.3    95    0.1    66     2.0   952.2    0.00 
 126    3:20   0.00   47.5    95    0.2   331     1.2   952.2    0.00 
 126    3:30   0.00   47.3    95    0.5     6     2.0   952.3    0.00 
 126    3:40   0.00   46.8    95    0.4    96     1.1   952.3    0.00 
 126    3:50   0.00   46.1    95    0.1    59     0.8   952.3    0.00 
 126    4:00   0.00   45.6    95    0.1   149     0.9   952.4    0.00 
 126    4:10   0.00   45.6    95    0.6   257     2.0   952.4    0.00 
 126    4:20   0.00   45.0    95    0.6   297     2.6   952.6    0.00 
 126    4:30   0.00   45.0    95    0.3    17     1.4   952.5    0.00 
 126    4:40   0.00   45.5    96    0.1    62     1.8   952.5    0.00 
 126    4:50   0.00   45.9    95    0.4    55     1.6   952.6    0.00 
 126    5:00   0.00   46.2    95    0.1   264     1.1   952.7    0.00 
 126    5:10   0.00   46.5    96    0.2   271     1.4   952.7    0.00 
 126    5:20   0.01   46.5    95    0.8   101     1.8   952.8    0.00 
 126    5:30   0.01   46.5    96    0.7    82     2.0   952.9    0.00 
 126    5:40   0.02   46.9    95    1.1    64     1.8   953.0    0.00 
 126    5:50   0.03   47.2    95    1.6    48     3.9   953.1    0.00 
 126    6:00   0.05   47.4    95    1.7    67     3.7   953.3    0.00 
 126    6:10   0.07   47.4    95    2.3    72     4.0   953.4    0.00 
 126    6:20   0.10   47.7    95    1.7    72     3.6   953.5    0.00 
 126    6:30   0.10   48.0    95    1.3    77     2.8   953.6    0.00 
 126    6:40   0.14   48.6    95    1.1    89     2.6   953.6    0.00 
 126    6:50   0.15   49.3    94    0.7   109     2.2   953.6    0.00 
 126    7:00   0.17   49.9    93    0.3   121     1.6   953.6    0.00 
 126    7:10   0.18   50.9    92    0.4   253     2.3   953.6    0.00 
 126    7:20   0.20   51.4    87    0.3   230     1.2   953.6    0.00 
 126    7:30   0.20   51.6    86    1.4   161     2.6   953.6    0.00 
 126    7:40   0.27   52.0    84    0.5    42     2.5   953.6    0.00 
 126    7:50   0.37   54.0    79    1.1    85     2.5   953.6    0.00 
 126    8:00   0.56   56.6    75    1.7   126     7.0   953.6    0.00 
 126    8:10   0.61   58.3    72    3.0   264     5.6   953.6    0.00 
 126    8:20   0.54   58.6    70    3.2   266     5.6   953.7    0.00 
 126    8:30   0.29   58.0    72    2.8   268     7.0   953.7    0.00 
 126    8:40   0.26   56.9    75    4.6   258     7.3   953.7    0.00 
 126    8:50   0.37   56.2    76    4.8   264     9.1   953.7    0.00 
 126    9:00   0.59   56.6    75    4.9   242     8.5   953.6    0.00 
 126    9:10   0.65   56.9    75    4.8   231     7.5   953.7    0.00 
 126    9:20   0.70   58.0    73    5.3   247     9.1   953.7    0.00 
 126    9:30   0.42   58.2    73    3.6   239     8.8   953.7    0.00 
 126    9:40   0.44   57.6    74    4.5   254     7.7   953.7    0.00 
 126    9:50   0.51   57.5    74    4.3   240     8.5   953.7    0.00 
 126   10:00   0.57   58.3    73    4.0   248     8.4   953.7    0.00 
 126   10:10   0.72   58.7    72    4.7   241     8.8   953.8    0.00 
 126   10:20   0.82   59.9    70    5.4   229     8.5   953.8    0.00 
 126   10:30   0.83   59.9    71    5.7   245    10.2   953.9    0.00 
 126   10:40   0.78   60.2    70    4.4   228    10.6   953.7    0.00 
 126   10:50   1.02   61.8    68    5.0   256    11.0   953.7    0.00 
 126   11:00   1.04   63.3    65    4.8   268    11.4   953.7    0.00 
 126   11:10   1.00   62.6    66    3.8   270     8.3   953.7    0.00 
 126   11:20   1.02   63.5    65    4.7   269     9.9   953.6    0.00 
 126   11:30   0.94   63.3    66    5.2   233    10.3   953.6    0.00 
 126   11:40   0.96   63.0    67    5.5   241    10.1   953.4    0.00 
 126   11:50   0.99   63.0    66    5.6   228    10.3   953.4    0.00 
 126   12:00   0.90   63.4    66    5.4   249    11.4   953.3    0.00 
 126   12:10   0.97   63.3    65    6.4   235    11.8   953.3    0.00 
 126   12:20   0.98   64.0    65    5.7   239    10.4   953.3    0.00 
 126   12:30   1.02   64.9    64    5.4   249    10.6   953.3    0.00 
 126   12:40   0.96   64.5    64    5.5   228    11.6   953.2    0.00 
 126   12:50   0.94   65.3    63    5.7   254    12.4   953.1    0.00 
 126   13:00   0.95   65.5    63    4.8   227    10.5   953.0    0.00 
 126   13:10   0.94   65.9    63    4.9   214     8.8   953.0    0.00 
 126   13:20   0.94   65.4    63    6.7   219    10.7   953.0    0.00 

Return to Blue Oak Ranch Reserve graphs page.


Western Regional Climate Center,wrcc@dri.edu